KFHR/FHR METAR and TAF weather

Enter ICAO airport designator
Station Type Date Time Source
KFHR METAR 2019/04/18 21:53 UTC NOAA

KFHR 182153Z AUTO 00000KT 10SM FEW022 FEW040 OVC050 12/09 A3014 RMK AO2 SLP205 T01220089


Station Type Date Time Source
KFHR Decoded METAR 2019/04/18 21:53 UTC NOAA

FRIDAY HARBOR AIRPORT, WA, United States (KFHR) 48-31N 123-02W 32M
Apr 18, 2019 - 05:53 PM EDT / 2019.04.18 2153 UTC
Wind: Calm:0
Visibility: 10 mile(s):0
Sky conditions: overcast
Temperature: 54.0 F (12.2 C)
Dew Point: 48.0 F (8.9 C)
Relative Humidity: 80%
Pressure (altimeter): 30.14 in. Hg (1020 hPa)
ob: KFHR 182153Z AUTO 00000KT 10SM FEW022 FEW040 OVC050 12/09 A3014 RMK AO2 SLP205 T01220089
cycle: 22

Station Type Date Time Source
KFHR TAF UTC NOAA

Error!

Example: see airport list